Time;durP1;ratioP1;P1;durP2;ratioP2;P2;SDS_P1;SDS_P2;PMS_P1;PMS_P2;Temp;Humidity;BMP_temperature;BMP_pressure;BME280_temperature;BME280_humidity;BME280_pressure;Samples;Min_cycle;Max_cycle;Signal;HPM_P1;HPM_P2
2023/06/18 00:02:26;;;;;;;7.47;6.50;;;17.90;51.00;;;;;;906853;155;27542;-75
2023/06/18 00:04:53;;;;;;;7.08;6.37;;;17.90;51.10;;;;;;903611;156;27382;-74
2023/06/18 00:07:19;;;;;;;8.20;6.00;;;17.90;51.30;;;;;;920746;152;27363;-74
2023/06/18 00:09:45;;;;;;;6.60;6.00;;;17.90;51.30;;;;;;912514;155;27540;-74
2023/06/18 00:12:12;;;;;;;7.28;6.58;;;17.80;51.40;;;;;;891258;155;27515;-74
2023/06/18 00:14:39;;;;;;;7.08;6.47;;;17.80;51.60;;;;;;891880;155;27472;-74
2023/06/18 00:17:05;;;;;;;6.28;5.55;;;17.80;51.70;;;;;;890344;155;27413;-74
2023/06/18 00:19:32;;;;;;;6.50;5.80;;;17.70;51.70;;;;;;890938;155;27366;-74
2023/06/18 00:21:59;;;;;;;7.37;6.00;;;17.70;51.80;;;;;;891026;155;27522;-74
2023/06/18 00:24:25;;;;;;;6.03;5.42;;;17.70;52.00;;;;;;890785;155;27338;-74
2023/06/18 00:26:52;;;;;;;8.17;5.80;;;17.60;52.10;;;;;;916887;154;27307;-74
2023/06/18 00:29:18;;;;;;;6.28;5.67;;;17.60;52.30;;;;;;921499;150;27438;-74
2023/06/18 00:31:45;;;;;;;7.58;6.28;;;17.50;52.40;;;;;;906426;155;27377;-74
2023/06/18 00:34:12;;;;;;;6.75;5.87;;;17.50;52.60;;;;;;922419;152;27348;-74
2023/06/18 00:36:43;;;;;;;6.80;5.72;;;17.50;52.80;;;;;;922739;152;27362;-74
2023/06/18 00:39:04;;;;;;;7.03;6.33;;;17.50;52.90;;;;;;916497;154;27458;-74
2023/06/18 00:41:31;;;;;;;6.17;5.60;;;17.40;53.00;;;;;;916963;154;27381;-74
2023/06/18 00:43:58;;;;;;;6.62;6.03;;;17.40;53.00;;;;;;918286;154;27404;-74
2023/06/18 00:46:27;;;;;;;6.78;6.05;;;17.40;53.10;;;;;;918507;154;27423;-74
2023/06/18 00:48:54;;;;;;;6.28;5.67;;;17.30;53.30;;;;;;918108;153;27391;-74
2023/06/18 00:51:22;;;;;;;6.90;6.30;;;17.30;53.30;;;;;;916491;154;27433;-74
2023/06/18 00:53:47;;;;;;;6.30;5.70;;;17.30;53.50;;;;;;916661;153;27512;-74
2023/06/18 00:56:13;;;;;;;7.07;6.47;;;17.30;53.60;;;;;;916850;154;27412;-74
2023/06/18 00:58:40;;;;;;;6.60;6.00;;;17.20;53.90;;;;;;925426;152;27313;-74
2023/06/18 01:01:10;;;;;;;6.97;6.27;;;17.20;54.00;;;;;;916581;154;27428;-74
2023/06/18 01:03:36;;;;;;;6.07;5.47;;;17.10;54.10;;;;;;919249;154;27499;-74
2023/06/18 01:06:02;;;;;;;6.58;5.97;;;17.10;54.20;;;;;;916855;153;27366;-74
2023/06/18 01:08:33;;;;;;;6.77;6.10;;;17.10;54.30;;;;;;916944;154;27461;-74
2023/06/18 01:11:00;;;;;;;7.60;6.90;;;17.10;54.40;;;;;;917398;153;27400;-74
2023/06/18 01:13:25;;;;;;;6.08;5.58;;;17.10;54.50;;;;;;906482;155;27386;-74
2023/06/18 01:15:51;;;;;;;6.87;6.17;;;17.00;54.60;;;;;;906575;155;27401;-74
2023/06/18 01:18:18;;;;;;;8.73;6.17;;;17.00;54.70;;;;;;909802;155;27303;-74
2023/06/18 01:20:45;;;;;;;6.53;5.50;;;17.00;54.80;;;;;;917693;153;27302;-74
2023/06/18 01:23:27;;;;;;;6.27;5.67;;;16.90;54.90;;;;;;923202;152;27397;-74
2023/06/18 01:25:53;;;;;;;7.28;6.58;;;16.90;55.00;;;;;;921672;152;27491;-74
2023/06/18 01:28:19;;;;;;;6.20;5.60;;;16.90;55.10;;;;;;905127;155;27421;-74
2023/06/18 01:30:46;;;;;;;7.73;6.57;;;16.80;55.20;;;;;;906757;155;27358;-74
2023/06/18 01:33:12;;;;;;;6.63;6.03;;;16.80;55.40;;;;;;901942;156;27711;-74
2023/06/18 01:35:39;;;;;;;7.63;6.57;;;16.80;55.50;;;;;;918943;154;27394;-74
2023/06/18 01:38:17;;;;;;;7.10;6.40;;;16.70;55.60;;;;;;917259;153;27477;-74
2023/06/18 01:40:53;;;;;;;7.10;6.50;;;16.70;55.70;;;;;;916126;154;27386;-74
2023/06/18 01:43:22;;;;;;;7.50;6.73;;;16.70;55.80;;;;;;916891;153;27368;-74
2023/06/18 01:46:04;;;;;;;6.70;6.10;;;16.60;56.00;;;;;;919288;154;27423;-74
2023/06/18 01:48:36;;;;;;;6.47;5.83;;;16.60;56.10;;;;;;922458;152;27417;-74
2023/06/18 01:51:03;;;;;;;7.00;6.40;;;16.50;56.10;;;;;;891290;155;27430;-74
2023/06/18 01:53:29;;;;;;;6.27;5.77;;;16.50;56.30;;;;;;890539;155;27479;-74
2023/06/18 01:55:59;;;;;;;7.60;6.17;;;16.50;56.40;;;;;;890976;155;27433;-74
2023/06/18 01:58:25;;;;;;;7.53;6.10;;;16.40;56.60;;;;;;892199;155;27465;-74
2023/06/18 02:00:52;;;;;;;6.87;6.25;;;16.40;56.80;;;;;;891625;155;27476;-74
2023/06/18 02:03:18;;;;;;;7.00;6.30;;;16.40;56.90;;;;;;891653;155;27499;-74
2023/06/18 02:05:45;;;;;;;6.70;6.10;;;16.30;56.90;;;;;;915400;154;27423;-74
2023/06/18 02:08:11;;;;;;;7.17;6.47;;;16.30;57.10;;;;;;918241;154;27686;-74
2023/06/18 02:10:38;;;;;;;7.73;5.80;;;16.30;57.20;;;;;;918613;154;27352;-74
2023/06/18 02:13:05;;;;;;;7.13;6.53;;;16.30;57.30;;;;;;914979;154;27407;-74
2023/06/18 02:15:31;;;;;;;7.10;6.10;;;16.20;57.20;;;;;;921950;154;27394;-74
2023/06/18 02:17:58;;;;;;;7.03;6.13;;;16.20;57.40;;;;;;916969;154;27800;-74
2023/06/18 02:20:25;;;;;;;7.97;6.37;;;16.20;57.30;;;;;;918121;153;27292;-74
2023/06/18 02:22:52;;;;;;;6.67;5.97;;;16.10;57.40;;;;;;919689;154;27366;-74
2023/06/18 02:25:19;;;;;;;6.63;6.03;;;16.10;57.60;;;;;;918837;154;27476;-74
2023/06/18 02:27:44;;;;;;;6.53;5.57;;;16.00;57.70;;;;;;916479;151;27479;-74
2023/06/18 02:30:11;;;;;;;7.10;5.93;;;16.00;57.90;;;;;;919800;153;27339;-74
2023/06/18 02:32:39;;;;;;;6.10;5.60;;;16.00;58.60;;;;;;917101;153;27484;-74
2023/06/18 02:35:04;;;;;;;8.10;5.97;;;15.90;58.20;;;;;;917381;154;27918;-74
2023/06/18 02:37:31;;;;;;;7.00;5.73;;;15.90;58.90;;;;;;917224;154;27408;-74
2023/06/18 02:39:57;;;;;;;7.07;6.47;;;15.90;58.50;;;;;;918643;153;27378;-74
2023/06/18 02:42:24;;;;;;;7.17;6.00;;;15.80;58.50;;;;;;915781;154;27398;-77
2023/06/18 02:44:50;;;;;;;7.30;6.60;;;15.80;58.60;;;;;;917392;154;27400;-77
2023/06/18 02:47:17;;;;;;;6.23;5.73;;;15.80;58.60;;;;;;920289;154;27307;-79
2023/06/18 02:49:43;;;;;;;6.50;5.90;;;15.70;58.80;;;;;;918863;154;27463;-79
2023/06/18 02:52:10;;;;;;;6.60;6.00;;;15.70;59.50;;;;;;917710;154;27380;-79
2023/06/18 02:54:37;;;;;;;7.00;6.30;;;15.70;59.20;;;;;;919723;153;27390;-79
2023/06/18 02:57:03;;;;;;;6.37;5.77;;;15.60;59.30;;;;;;918480;154;27309;-79
2023/06/18 02:59:30;;;;;;;6.13;5.60;;;15.60;59.40;;;;;;917654;154;27467;-79
2023/06/18 03:01:56;;;;;;;6.43;5.80;;;15.60;59.50;;;;;;917140;153;27489;-79
2023/06/18 03:04:23;;;;;;;6.13;5.53;;;15.50;59.60;;;;;;914693;154;27499;-79
2023/06/18 03:06:50;;;;;;;9.67;5.77;;;15.50;59.60;;;;;;911269;154;27388;-79
2023/06/18 03:09:16;;;;;;;7.37;5.83;;;15.50;59.80;;;;;;913619;154;27376;-79
2023/06/18 03:11:43;;;;;;;9.33;6.57;;;15.50;59.90;;;;;;925390;152;27344;-79
2023/06/18 03:14:09;;;;;;;6.33;5.80;;;15.40;59.90;;;;;;924281;152;27458;-79
2023/06/18 03:16:36;;;;;;;6.60;6.00;;;15.40;59.90;;;;;;924660;152;27346;-79
2023/06/18 03:19:02;;;;;;;7.00;6.27;;;15.40;60.00;;;;;;925979;152;27412;-79
2023/06/18 03:21:29;;;;;;;6.77;6.10;;;15.30;60.00;;;;;;925703;151;27421;-79
2023/06/18 03:23:56;;;;;;;7.30;6.60;;;15.30;60.20;;;;;;923975;151;27358;-79
2023/06/18 03:26:22;;;;;;;6.77;6.27;;;15.30;60.40;;;;;;924153;152;27369;-79
2023/06/18 03:28:49;;;;;;;6.97;6.07;;;15.30;60.60;;;;;;925687;152;27330;-79
2023/06/18 03:31:15;;;;;;;6.73;6.13;;;15.20;60.70;;;;;;913444;154;27344;-79
2023/06/18 03:33:42;;;;;;;8.53;6.70;;;15.20;60.90;;;;;;924751;152;27390;-79
2023/06/18 03:36:09;;;;;;;7.43;6.53;;;15.20;61.10;;;;;;923170;153;27384;-81
2023/06/18 03:38:35;;;;;;;7.00;6.30;;;15.20;61.20;;;;;;914103;154;27402;-79
2023/06/18 03:41:02;;;;;;;7.20;6.53;;;15.20;61.60;;;;;;913913;154;27349;-79
2023/06/18 03:43:28;;;;;;;7.07;6.47;;;15.20;61.70;;;;;;915078;154;27374;-79
2023/06/18 03:45:55;;;;;;;7.67;6.97;;;15.30;61.80;;;;;;924555;152;27365;-79
2023/06/18 03:48:21;;;;;;;7.73;6.93;;;15.30;62.10;;;;;;912336;154;27320;-79
2023/06/18 03:50:48;;;;;;;9.03;6.57;;;15.30;62.10;;;;;;925629;152;27324;-79
2023/06/18 03:53:15;;;;;;;6.93;6.33;;;15.40;62.30;;;;;;913996;154;27381;-79
2023/06/18 03:55:44;;;;;;;7.00;6.30;;;15.40;62.50;;;;;;923858;152;27393;-79
2023/06/18 03:58:11;;;;;;;7.00;6.03;;;15.50;62.60;;;;;;913272;154;27398;-80
2023/06/18 04:00:38;;;;;;;7.17;6.43;;;15.50;62.90;;;;;;909977;155;27389;-79
2023/06/18 04:03:05;;;;;;;6.67;5.93;;;15.60;63.10;;;;;;913451;154;27352;-79
2023/06/18 04:05:30;;;;;;;7.73;6.30;;;15.70;63.10;;;;;;895751;155;27433;-79
2023/06/18 04:07:57;;;;;;;7.73;6.53;;;15.70;63.90;;;;;;894427;156;27424;-79
2023/06/18 04:10:24;;;;;;;6.97;6.37;;;15.80;63.20;;;;;;894170;156;27413;-79
2023/06/18 04:12:50;;;;;;;7.63;6.90;;;15.90;63.10;;;;;;885800;157;27482;-80
2023/06/18 04:15:17;;;;;;;7.50;6.80;;;16.00;63.10;;;;;;898061;156;27393;-79
2023/06/18 04:17:43;;;;;;;8.10;6.73;;;16.10;63.10;;;;;;888936;157;27920;-79
2023/06/18 04:20:10;;;;;;;6.53;5.90;;;16.20;63.10;;;;;;899896;154;27516;-79
2023/06/18 04:22:37;;;;;;;6.77;6.17;;;16.30;63.00;;;;;;898971;155;27390;-79
2023/06/18 04:25:03;;;;;;;7.33;6.73;;;16.40;62.90;;;;;;888551;157;27327;-79
2023/06/18 04:27:30;;;;;;;6.73;6.13;;;16.50;62.80;;;;;;896287;155;27381;-79
2023/06/18 04:29:57;;;;;;;7.00;6.40;;;16.70;62.90;;;;;;894927;155;27453;-79
2023/06/18 04:32:23;;;;;;;7.10;6.15;;;16.80;63.20;;;;;;896412;155;27439;-79
2023/06/18 04:34:50;;;;;;;6.33;5.80;;;16.90;62.80;;;;;;897786;156;27334;-79
2023/06/18 04:37:16;;;;;;;5.95;5.35;;;17.00;62.70;;;;;;898124;155;27369;-79
2023/06/18 04:39:43;;;;;;;6.80;6.10;;;17.20;62.70;;;;;;896622;156;27434;-79
2023/06/18 04:42:10;;;;;;;6.40;5.87;;;17.30;62.70;;;;;;895438;155;27441;-79
2023/06/18 04:44:36;;;;;;;6.28;5.67;;;17.50;62.60;;;;;;896387;155;27381;-79
2023/06/18 04:47:03;;;;;;;7.40;5.87;;;17.70;62.50;;;;;;896314;155;27385;-79
2023/06/18 04:49:30;;;;;;;7.53;6.40;;;17.90;62.30;;;;;;898044;156;27970;-79
2023/06/18 04:51:56;;;;;;;7.45;6.75;;;18.00;61.80;;;;;;897145;155;27527;-79
2023/06/18 04:54:22;;;;;;;6.97;5.22;;;18.20;61.40;;;;;;896331;155;27399;-79
2023/06/18 04:56:49;;;;;;;6.08;5.58;;;18.40;61.10;;;;;;896000;155;27425;-80
2023/06/18 04:59:16;;;;;;;5.95;5.45;;;18.70;61.10;;;;;;897504;155;27461;-79
2023/06/18 05:01:42;;;;;;;6.47;5.97;;;18.90;61.30;;;;;;896433;155;27365;-80
2023/06/18 05:04:09;;;;;;;5.62;5.12;;;19.30;61.70;;;;;;898316;153;27430;-80
2023/06/18 05:06:35;;;;;;;5.87;5.37;;;19.70;61.60;;;;;;942292;150;27336;-80
2023/06/18 05:09:02;;;;;;;5.72;5.12;;;20.20;61.60;;;;;;941777;150;27399;-80
2023/06/18 05:11:29;;;;;;;5.47;4.97;;;20.70;61.00;;;;;;941336;150;27326;-80
2023/06/18 05:13:55;;;;;;;5.55;5.05;;;21.30;60.10;;;;;;943234;150;27433;-80
2023/06/18 05:16:22;;;;;;;5.55;5.10;;;21.90;59.30;;;;;;936283;151;27781;-80
2023/06/18 05:18:48;;;;;;;5.95;5.15;;;22.50;58.80;;;;;;925275;153;27412;-80
2023/06/18 05:21:15;;;;;;;5.20;4.80;;;23.00;58.20;;;;;;926653;152;27362;-80
2023/06/18 05:23:41;;;;;;;5.22;4.72;;;23.60;57.50;;;;;;942235;150;27443;-80
2023/06/18 05:26:08;;;;;;;5.20;4.80;;;24.20;56.80;;;;;;941495;150;27377;-80
2023/06/18 05:28:35;;;;;;;5.20;4.80;;;24.70;55.80;;;;;;941899;150;27486;-80
2023/06/18 05:31:01;;;;;;;4.87;4.40;;;25.20;54.90;;;;;;937540;151;27910;-80
2023/06/18 05:33:28;;;;;;;4.70;4.30;;;25.70;54.10;;;;;;937141;151;27326;-80
2023/06/18 05:35:54;;;;;;;4.47;4.03;;;26.10;53.60;;;;;;940496;150;27462;-80
2023/06/18 05:38:21;;;;;;;4.25;3.95;;;26.50;52.90;;;;;;916197;152;27398;-80
2023/06/18 05:40:48;;;;;;;4.67;4.28;;;26.90;52.10;;;;;;913601;153;27466;-81
2023/06/18 05:43:14;;;;;;;3.72;3.47;;;27.20;51.30;;;;;;914461;153;27360;-80
2023/06/18 05:45:41;;;;;;;4.17;3.87;;;27.60;50.80;;;;;;914282;153;27356;-80
2023/06/18 05:48:09;;;;;;;4.42;4.08;;;28.00;50.50;;;;;;915307;152;27429;-81
2023/06/18 05:50:34;;;;;;;4.47;4.08;;;28.30;50.10;;;;;;937003;151;27363;-81
2023/06/18 05:53:01;;;;;;;4.62;4.22;;;28.70;49.80;;;;;;924484;153;27371;-80
2023/06/18 05:55:27;;;;;;;4.85;4.35;;;29.20;49.30;;;;;;925934;152;27362;-81
2023/06/18 05:57:54;;;;;;;4.17;3.87;;;29.60;48.80;;;;;;916024;152;27419;-81
2023/06/18 06:00:20;;;;;;;4.83;4.42;;;30.00;48.20;;;;;;924980;152;27995;-81
2023/06/18 06:02:47;;;;;;;4.28;3.92;;;30.50;47.60;;;;;;927240;152;27318;-81
2023/06/18 06:05:14;;;;;;;4.50;4.20;;;30.90;47.00;;;;;;920819;152;26302;-81
2023/06/18 06:07:40;;;;;;;3.90;3.60;;;31.30;46.30;;;;;;917824;154;27446;-81
2023/06/18 06:10:07;;;;;;;4.03;3.72;;;31.70;45.70;;;;;;919261;153;27400;-81
2023/06/18 06:12:33;;;;;;;4.47;4.08;;;32.20;45.30;;;;;;914887;154;27485;-81
2023/06/18 06:15:00;;;;;;;3.95;3.65;;;32.50;44.60;;;;;;917793;154;27367;-81
2023/06/18 06:17:26;;;;;;;4.15;3.85;;;32.80;44.00;;;;;;916346;153;27319;-81
2023/06/18 06:19:53;;;;;;;4.08;3.77;;;33.20;43.60;;;;;;917615;154;26296;-81
2023/06/18 06:22:20;;;;;;;3.80;3.60;;;33.60;43.20;;;;;;922819;152;27380;-81
2023/06/18 06:24:46;;;;;;;6.20;4.15;;;33.90;42.60;;;;;;923092;152;26332;-80
2023/06/18 06:27:13;;;;;;;3.60;3.40;;;34.30;41.90;;;;;;917461;154;26364;-80
2023/06/18 06:29:39;;;;;;;4.22;3.62;;;34.60;41.50;;;;;;916329;154;27475;-79
2023/06/18 06:32:06;;;;;;;3.85;3.60;;;35.00;41.00;;;;;;925627;151;26378;-80
2023/06/18 06:34:33;;;;;;;3.70;3.40;;;35.40;40.70;;;;;;899213;155;26270;-80
2023/06/18 06:36:59;;;;;;;4.15;3.85;;;35.70;40.50;;;;;;898949;155;27491;-80
2023/06/18 06:39:26;;;;;;;3.85;3.55;;;36.00;39.80;;;;;;913237;155;26387;-80
2023/06/18 06:41:52;;;;;;;4.05;3.75;;;36.50;39.40;;;;;;908811;155;26329;-80
2023/06/18 06:44:19;;;;;;;3.77;3.58;;;36.90;38.90;;;;;;890992;155;26299;-80
2023/06/18 06:46:46;;;;;;;3.52;3.33;;;37.20;38.30;;;;;;891506;155;26268;-81
2023/06/18 06:49:12;;;;;;;3.85;3.55;;;37.60;37.80;;;;;;893824;155;26369;-80
2023/06/18 06:51:39;;;;;;;3.85;3.55;;;38.00;37.10;;;;;;892915;155;26371;-80
2023/06/18 06:54:05;;;;;;;3.87;3.58;;;38.30;36.60;;;;;;891855;155;26303;-80
2023/06/18 06:56:32;;;;;;;3.62;3.40;;;38.60;36.20;;;;;;891405;155;26302;-80
2023/06/18 06:58:58;;;;;;;4.40;4.00;;;38.90;35.80;;;;;;891425;155;26308;-80
2023/06/18 07:01:25;;;;;;;3.83;3.52;;;39.10;35.30;;;;;;891685;155;26221;-80
2023/06/18 07:03:52;;;;;;;3.90;3.60;;;39.50;35.00;;;;;;915694;154;26288;-80
2023/06/18 07:06:18;;;;;;;3.85;3.55;;;39.80;34.40;;;;;;914530;154;26434;-80
2023/06/18 07:08:45;;;;;;;3.72;3.50;;;40.10;34.10;;;;;;913001;154;26257;-80
2023/06/18 07:11:11;;;;;;;3.30;3.10;;;40.40;33.60;;;;;;913249;154;26363;-80
2023/06/18 07:13:38;;;;;;;3.87;3.58;;;40.70;33.10;;;;;;913231;154;26270;-80
2023/06/18 07:16:05;;;;;;;3.52;3.30;;;41.00;32.90;;;;;;915529;154;26397;-80
2023/06/18 07:18:31;;;;;;;3.40;3.20;;;41.40;32.60;;;;;;914152;154;26289;-80
2023/06/18 07:20:58;;;;;;;5.08;3.08;;;41.70;32.30;;;;;;912547;154;26220;-80
2023/06/18 07:23:24;;;;;;;3.87;3.58;;;42.10;31.90;;;;;;913950;154;26310;-80
2023/06/18 07:25:51;;;;;;;3.47;3.22;;;42.50;31.40;;;;;;913078;154;26405;-80
2023/06/18 07:28:18;;;;;;;3.58;3.30;;;42.90;30.90;;;;;;914591;152;26369;-81
2023/06/18 07:30:44;;;;;;;3.90;3.12;;;43.20;30.60;;;;;;914364;154;26273;-81
2023/06/18 07:33:11;;;;;;;3.67;3.42;;;43.50;30.30;;;;;;914896;154;26327;-81
2023/06/18 07:35:37;;;;;;;3.62;3.42;;;43.80;30.10;;;;;;914773;154;26314;-81
2023/06/18 07:38:04;;;;;;;3.37;3.10;;;44.10;29.60;;;;;;912551;154;26315;-81
2023/06/18 07:40:33;;;;;;;3.30;3.10;;;44.40;29.80;;;;;;915566;154;26303;-81
2023/06/18 07:42:57;;;;;;;3.42;3.17;;;44.60;29.20;;;;;;912968;154;26258;-81
2023/06/18 07:45:24;;;;;;;3.15;2.95;;;44.80;29.20;;;;;;915238;154;26391;-81
2023/06/18 07:47:50;;;;;;;3.95;3.60;;;45.10;28.80;;;;;;914476;154;26293;-81
2023/06/18 07:50:17;;;;;;;3.52;3.22;;;45.30;28.50;;;;;;923830;152;26379;-81
2023/06/18 07:52:43;;;;;;;3.50;3.22;;;45.60;28.30;;;;;;905334;156;26362;-81
2023/06/18 07:55:10;;;;;;;3.37;2.95;;;45.80;28.00;;;;;;924983;152;26254;-81
2023/06/18 07:57:37;;;;;;;3.08;2.87;;;46.00;27.90;;;;;;910800;154;26320;-81
2023/06/18 08:00:03;;;;;;;3.75;3.00;;;46.30;27.70;;;;;;910568;155;26336;-81
2023/06/18 08:02:30;;;;;;;3.10;2.90;;;46.40;27.50;;;;;;914688;154;26296;-79
2023/06/18 08:04:56;;;;;;;2.98;2.77;;;46.60;27.10;;;;;;915244;154;26285;-79
2023/06/18 08:07:23;;;;;;;3.42;3.12;;;46.80;27.00;;;;;;924430;151;26371;-79
2023/06/18 08:09:50;;;;;;;3.27;2.98;;;46.90;26.90;;;;;;892760;155;26313;-80
2023/06/18 08:12:16;;;;;;;3.20;3.00;;;47.20;26.80;;;;;;890777;155;26712;-79
2023/06/18 08:14:43;;;;;;;3.45;3.25;;;47.40;26.50;;;;;;890722;155;26268;-79
2023/06/18 08:17:09;;;;;;;3.37;3.08;;;47.70;26.30;;;;;;921123;152;26288;-79
2023/06/18 08:19:36;;;;;;;2.90;2.70;;;47.90;26.10;;;;;;906815;156;26254;-79
2023/06/18 08:22:03;;;;;;;2.80;2.60;;;48.00;25.70;;;;;;923849;152;26246;-79
2023/06/18 08:24:29;;;;;;;3.15;2.95;;;48.20;25.50;;;;;;906090;155;26288;-79
2023/06/18 08:26:56;;;;;;;3.37;3.08;;;48.20;25.30;;;;;;923781;152;26257;-80
2023/06/18 08:29:22;;;;;;;3.62;3.33;;;48.40;25.40;;;;;;919505;152;26298;-81
2023/06/18 08:31:49;;;;;;;3.00;2.80;;;48.60;25.20;;;;;;916104;154;26422;-81
2023/06/18 08:34:15;;;;;;;3.15;2.87;;;48.80;25.00;;;;;;917983;153;26269;-81
2023/06/18 08:36:46;;;;;;;3.00;2.72;;;49.00;24.80;;;;;;915919;153;26317;-81
2023/06/18 08:39:09;;;;;;;2.83;2.62;;;49.30;24.80;;;;;;916491;154;26365;-81
2023/06/18 08:41:35;;;;;;;2.95;2.72;;;49.50;24.50;;;;;;916730;154;26289;-81
2023/06/18 08:44:02;;;;;;;3.00;2.80;;;49.70;24.40;;;;;;917072;153;26325;-81
2023/06/18 08:46:28;;;;;;;2.77;2.58;;;50.00;24.20;;;;;;922111;152;26305;-81
2023/06/18 08:48:55;;;;;;;2.65;2.45;;;50.30;24.20;;;;;;905642;155;26278;-81
2023/06/18 08:51:22;;;;;;;2.72;2.52;;;50.50;24.00;;;;;;891322;155;26259;-81
2023/06/18 08:53:51;;;;;;;3.08;2.85;;;50.60;23.70;;;;;;890389;155;26295;-81
2023/06/18 08:56:17;;;;;;;3.00;2.70;;;50.90;23.40;;;;;;915409;154;26368;-81
2023/06/18 08:58:44;;;;;;;2.90;2.70;;;51.10;23.50;;;;;;908125;155;26218;-81
2023/06/18 09:01:11;;;;;;;2.67;2.58;;;51.20;23.10;;;;;;906813;155;26324;-81
2023/06/18 09:03:37;;;;;;;2.80;2.60;;;51.40;22.70;;;;;;918756;154;26361;-81
2023/06/18 09:06:04;;;;;;;3.00;2.80;;;51.60;22.60;;;;;;918088;154;26426;-80
2023/06/18 09:08:30;;;;;;;3.17;2.98;;;51.60;22.10;;;;;;915476;154;26253;-81
2023/06/18 09:10:57;;;;;;;2.85;2.70;;;51.80;22.10;;;;;;924646;152;26276;-81
2023/06/18 09:13:24;;;;;;;3.05;2.85;;;51.80;21.90;;;;;;924206;152;26322;-81
2023/06/18 09:15:50;;;;;;;3.00;2.80;;;51.80;21.70;;;;;;910923;155;26317;-81
2023/06/18 09:18:17;;;;;;;2.90;2.70;;;51.80;21.60;;;;;;906625;156;26448;-81
2023/06/18 09:20:43;;;;;;;2.90;2.70;;;51.80;21.50;;;;;;895817;155;26297;-81
2023/06/18 09:23:10;;;;;;;2.45;2.33;;;51.80;21.30;;;;;;925861;152;26221;-81
2023/06/18 09:25:36;;;;;;;2.77;2.58;;;51.80;21.30;;;;;;925538;152;26250;-81
2023/06/18 09:28:03;;;;;;;2.80;2.60;;;51.90;21.10;;;;;;925744;152;26430;-81
2023/06/18 09:30:30;;;;;;;3.00;2.80;;;52.00;21.00;;;;;;912207;154;26374;-81
2023/06/18 09:32:59;;;;;;;2.90;2.70;;;52.10;20.80;;;;;;912044;154;26317;-81
2023/06/18 09:35:23;;;;;;;3.35;2.42;;;52.10;20.80;;;;;;924159;152;26272;-81
2023/06/18 09:37:49;;;;;;;2.52;2.42;;;52.10;20.90;;;;;;913311;154;26281;-81
2023/06/18 09:40:16;;;;;;;2.58;2.35;;;52.10;20.70;;;;;;912313;154;26403;-81
2023/06/18 09:42:43;;;;;;;2.52;2.42;;;52.00;20.40;;;;;;912246;154;26335;-81
2023/06/18 09:45:09;;;;;;;2.62;2.42;;;51.90;20.30;;;;;;913615;154;26304;-81
2023/06/18 09:47:39;;;;;;;4.05;2.45;;;51.80;20.30;;;;;;913057;154;26333;-82
2023/06/18 09:50:05;;;;;;;2.85;2.65;;;51.70;20.10;;;;;;909850;155;26225;-81
2023/06/18 09:52:32;;;;;;;2.83;2.62;;;51.40;20.00;;;;;;924075;152;26214;-81
2023/06/18 09:54:58;;;;;;;2.83;2.47;;;51.20;20.00;;;;;;922871;152;26371;-81
2023/06/18 09:57:25;;;;;;;9.68;3.10;;;51.10;20.00;;;;;;914011;155;26411;-81
2023/06/18 10:00:09;;;;;;;4.53;2.65;;;50.90;20.00;;;;;;916238;155;26306;-81
2023/06/18 10:02:36;;;;;;;2.75;2.55;;;50.60;19.90;;;;;;924299;152;26260;-81
2023/06/18 10:05:02;;;;;;;3.92;2.80;;;50.30;19.90;;;;;;924417;152;26373;-81
2023/06/18 10:07:29;;;;;;;2.80;2.60;;;49.90;19.90;;;;;;924778;152;26319;-81
2023/06/18 10:09:56;;;;;;;3.20;3.00;;;49.50;19.90;;;;;;910680;155;26305;-81
2023/06/18 10:12:22;;;;;;;4.33;3.12;;;49.10;20.30;;;;;;891879;155;26367;-81
2023/06/18 10:14:49;;;;;;;2.90;2.70;;;48.70;19.90;;;;;;920807;152;26284;-82
2023/06/18 10:17:15;;;;;;;3.00;2.80;;;48.20;19.90;;;;;;921027;152;26319;-81
2023/06/18 10:19:48;;;;;;;3.92;3.27;;;47.70;19.90;;;;;;920084;152;26270;-82
2023/06/18 10:22:14;;;;;;;3.35;3.15;;;47.10;20.00;;;;;;923040;152;26305;-81
2023/06/18 10:24:44;;;;;;;3.17;2.98;;;46.60;20.20;;;;;;919292;154;26221;-80
2023/06/18 10:27:11;;;;;;;3.60;3.30;;;46.10;20.40;;;;;;917210;154;26356;-81
2023/06/18 10:29:37;;;;;;;3.83;3.52;;;45.60;20.20;;;;;;907888;153;26366;-81
2023/06/18 10:32:03;;;;;;;3.60;3.30;;;45.10;20.10;;;;;;891270;156;26821;-81
2023/06/18 10:34:30;;;;;;;4.05;3.75;;;44.60;20.40;;;;;;920607;152;26293;-81
2023/06/18 10:36:56;;;;;;;3.45;3.25;;;44.30;20.60;;;;;;923306;152;26303;-82
2023/06/18 10:39:23;;;;;;;4.30;3.95;;;43.80;20.70;;;;;;905559;155;26425;-81
2023/06/18 10:41:50;;;;;;;3.42;3.22;;;43.50;20.70;;;;;;906896;155;26698;-81
2023/06/18 10:44:16;;;;;;;3.72;3.42;;;43.00;20.70;;;;;;915455;154;26276;-81
2023/06/18 10:46:43;;;;;;;3.85;3.55;;;42.60;20.90;;;;;;915777;154;26326;-81
2023/06/18 10:49:16;;;;;;;3.85;3.55;;;42.20;21.00;;;;;;915473;154;26233;-81
2023/06/18 10:51:51;;;;;;;3.85;3.65;;;41.80;21.20;;;;;;917072;153;26421;-81
2023/06/18 10:54:21;;;;;;;3.83;3.52;;;41.40;21.40;;;;;;914801;153;26237;-81
2023/06/18 10:56:51;;;;;;;3.22;3.02;;;41.00;21.50;;;;;;922182;152;26217;-80
2023/06/18 10:59:17;;;;;;;4.17;3.77;;;40.70;21.70;;;;;;919312;153;26327;-80
2023/06/18 11:01:43;;;;;;;4.05;3.75;;;40.40;21.90;;;;;;908017;154;26273;-80
2023/06/18 11:04:10;;;;;;;3.75;3.45;;;40.20;21.90;;;;;;911518;155;26497;-81
2023/06/18 11:06:36;;;;;;;3.80;3.50;;;40.00;22.40;;;;;;899810;155;26261;-80
2023/06/18 11:09:03;;;;;;;4.60;3.75;;;39.80;22.30;;;;;;903773;153;26348;-80
2023/06/18 11:11:30;;;;;;;6.62;3.80;;;39.50;22.50;;;;;;903827;154;27533;-80
2023/06/18 11:13:56;;;;;;;3.70;3.42;;;39.40;22.40;;;;;;935064;150;26352;-80
2023/06/18 11:16:23;;;;;;;3.87;3.58;;;39.20;22.40;;;;;;907139;154;27404;-80
2023/06/18 11:18:49;;;;;;;3.92;3.72;;;39.00;22.50;;;;;;907035;154;26261;-80
2023/06/18 11:21:16;;;;;;;4.40;4.00;;;38.80;22.50;;;;;;906336;154;26280;-80
2023/06/18 11:23:42;;;;;;;3.77;3.47;;;38.60;22.60;;;;;;904274;154;26289;-80
2023/06/18 11:26:18;;;;;;;4.25;3.85;;;38.40;22.80;;;;;;938811;150;27497;-80
2023/06/18 11:28:45;;;;;;;3.83;3.60;;;38.10;22.80;;;;;;937446;151;27369;-80
2023/06/18 11:31:11;;;;;;;3.90;3.60;;;37.90;23.10;;;;;;936929;151;26313;-79
2023/06/18 11:33:38;;;;;;;4.47;4.08;;;37.80;23.20;;;;;;939088;150;27285;-80
2023/06/18 11:36:07;;;;;;;3.85;3.55;;;37.70;23.40;;;;;;908078;153;26818;-79
2023/06/18 11:38:34;;;;;;;3.98;3.67;;;37.60;23.40;;;;;;934051;150;26200;-79
2023/06/18 11:41:00;;;;;;;3.92;3.62;;;37.50;23.40;;;;;;917859;153;27434;-80
2023/06/18 11:43:27;;;;;;;3.87;3.58;;;37.40;23.60;;;;;;938318;151;26243;-80
2023/06/18 11:45:54;;;;;;;3.92;3.62;;;37.20;23.50;;;;;;935215;151;27388;-80
2023/06/18 11:48:20;;;;;;;4.90;4.00;;;37.10;23.70;;;;;;936021;151;27386;-80
2023/06/18 11:50:50;;;;;;;4.12;3.67;;;37.00;23.90;;;;;;933674;151;27443;-80
2023/06/18 11:53:16;;;;;;;4.10;3.70;;;36.90;24.00;;;;;;936941;151;27807;-80
2023/06/18 11:55:43;;;;;;;3.70;3.40;;;36.90;24.00;;;;;;919731;153;26302;-80
2023/06/18 11:58:10;;;;;;;3.90;3.60;;;36.90;24.20;;;;;;922450;153;27396;-80
2023/06/18 12:00:36;;;;;;;3.83;3.50;;;36.90;24.40;;;;;;908285;154;27349;-80
2023/06/18 12:03:03;;;;;;;3.75;3.45;;;36.90;24.30;;;;;;933941;150;27347;-80
2023/06/18 12:05:36;;;;;;;3.40;3.15;;;36.80;24.30;;;;;;906429;154;27480;-80
2023/06/18 12:08:07;;;;;;;3.85;3.52;;;36.90;24.40;;;;;;906799;154;27434;-80
2023/06/18 12:10:34;;;;;;;3.92;3.72;;;36.90;24.40;;;;;;934567;151;27459;-80
2023/06/18 12:13:03;;;;;;;4.00;3.70;;;36.80;24.40;;;;;;934700;150;26257;-81
2023/06/18 12:15:30;;;;;;;5.83;3.62;;;36.80;24.40;;;;;;932198;150;27396;-80
2023/06/18 12:18:08;;;;;;;3.98;3.72;;;36.70;24.60;;;;;;906702;154;27435;-80
2023/06/18 12:20:35;;;;;;;3.75;3.45;;;36.70;24.80;;;;;;906580;154;27372;-80
2023/06/18 12:23:02;;;;;;;3.27;3.08;;;36.80;24.60;;;;;;907395;154;26292;-80
2023/06/18 12:25:28;;;;;;;3.55;3.35;;;36.70;24.60;;;;;;906917;154;27496;-80
2023/06/18 12:27:55;;;;;;;4.35;3.62;;;36.70;24.40;;;;;;906223;154;27757;-80
2023/06/18 12:30:28;;;;;;;4.28;3.98;;;36.70;24.60;;;;;;935477;151;27316;-80
2023/06/18 12:33:00;;;;;;;3.58;3.37;;;36.70;24.60;;;;;;938192;150;27420;-80
2023/06/18 12:35:27;;;;;;;3.55;3.30;;;36.60;24.50;;;;;;935841;151;27358;-80
2023/06/18 12:37:53;;;;;;;3.80;3.50;;;36.60;24.60;;;;;;937926;151;27493;-80
2023/06/18 12:40:20;;;;;;;3.33;3.08;;;36.60;24.80;;;;;;936908;151;26676;-80
2023/06/18 12:42:47;;;;;;;3.83;3.52;;;36.50;24.80;;;;;;935555;151;27300;-80
2023/06/18 12:45:13;;;;;;;3.92;3.52;;;36.50;24.60;;;;;;937381;151;27760;-79
2023/06/18 12:47:43;;;;;;;3.42;3.12;;;36.40;24.60;;;;;;920425;153;27459;-80